Time;durP1;ratioP1;P1;durP2;ratioP2;P2;SDS_P1;SDS_P2;PMS_P1;PMS_P2;Temp;Humidity;BMP_temperature;BMP_pressure;BME280_temperature;BME280_humidity;BME280_pressure;Samples;Min_cycle;Max_cycle;Signal;HPM_P1;HPM_P2
2022/06/20 00:00:38;;;;;;;11.63;10.63;;;;;;;;;;4988905;28;20433;-70
2022/06/20 00:03:04;;;;;;;11.30;10.20;;;;;;;;;;4987094;28;20222;-70
2022/06/20 00:05:32;;;;;;;11.07;10.07;;;;;;;;;;4998296;28;20072;-70
2022/06/20 00:07:58;;;;;;;11.55;10.57;;;;;;;;;;4995009;28;20038;-70
2022/06/20 00:10:24;;;;;;;11.07;10.30;;;;;;;;;;4989120;28;20038;-70
2022/06/20 00:12:50;;;;;;;13.43;11.98;;;;;;;;;;4985317;28;20042;-70
2022/06/20 00:15:23;;;;;;;11.82;10.93;;;;;;;;;;4992945;28;20029;-69
2022/06/20 00:17:48;;;;;;;11.23;10.30;;;;;;;;;;4995847;28;20030;-70
2022/06/20 00:20:14;;;;;;;15.82;10.15;;;;;;;;;;4995225;28;20044;-70
2022/06/20 00:22:40;;;;;;;12.45;11.18;;;;;;;;;;4996233;28;20469;-69
2022/06/20 00:25:05;;;;;;;13.75;10.73;;;;;;;;;;4988515;28;20022;-69
2022/06/20 00:27:30;;;;;;;11.68;10.68;;;;;;;;;;5004310;28;20042;-69
2022/06/20 00:29:55;;;;;;;10.95;10.05;;;;;;;;;;4990673;28;20137;-70
2022/06/20 00:32:21;;;;;;;11.48;10.57;;;;;;;;;;4988697;28;20030;-68
2022/06/20 00:34:46;;;;;;;11.68;10.65;;;;;;;;;;4988118;28;20026;-70
2022/06/20 00:37:16;;;;;;;11.45;10.45;;;;;;;;;;4991141;28;20026;-70
2022/06/20 00:39:42;;;;;;;11.93;10.93;;;;;;;;;;4991528;28;20465;-71
2022/06/20 00:42:09;;;;;;;11.80;10.80;;;;;;;;;;4983972;28;20595;-70
2022/06/20 00:44:36;;;;;;;10.55;9.73;;;;;;;;;;5002351;28;20058;-70
2022/06/20 00:47:04;;;;;;;13.88;11.15;;;;;;;;;;5001246;28;20027;-70
2022/06/20 00:49:32;;;;;;;12.23;11.20;;;;;;;;;;4985935;28;20058;-68
2022/06/20 00:51:58;;;;;;;10.35;9.65;;;;;;;;;;4988141;28;20022;-71
2022/06/20 00:54:29;;;;;;;11.77;10.68;;;;;;;;;;4989708;28;20038;-68
2022/06/20 00:56:58;;;;;;;11.30;10.40;;;;;;;;;;4991670;28;20053;-69
2022/06/20 00:59:34;;;;;;;11.35;10.25;;;;;;;;;;4996382;28;20027;-71
2022/06/20 01:02:01;;;;;;;11.50;10.60;;;;;;;;;;4997878;28;20025;-71
2022/06/20 01:04:27;;;;;;;15.23;13.75;;;;;;;;;;4992249;28;20667;-70
2022/06/20 01:06:54;;;;;;;13.70;12.50;;;;;;;;;;4996967;28;20026;-69
2022/06/20 01:09:21;;;;;;;13.45;12.15;;;;;;;;;;4999138;28;20081;-68
2022/06/20 01:11:51;;;;;;;12.55;11.32;;;;;;;;;;4991924;28;20089;-68
2022/06/20 01:14:25;;;;;;;12.32;11.25;;;;;;;;;;4988061;28;20030;-70
2022/06/20 01:16:54;;;;;;;11.13;10.02;;;;;;;;;;4991145;28;20060;-69
2022/06/20 01:19:33;;;;;;;12.77;11.77;;;;;;;;;;4998042;28;20080;-70
2022/06/20 01:22:03;;;;;;;11.82;10.90;;;;;;;;;;4989794;28;20413;-70
2022/06/20 01:24:36;;;;;;;13.15;10.10;;;;;;;;;;4988024;28;20457;-70
2022/06/20 01:27:20;;;;;;;13.02;11.35;;;;;;;;;;4999416;28;20408;-70
2022/06/20 01:29:46;;;;;;;12.77;11.68;;;;;;;;;;4992164;28;20437;-70
2022/06/20 01:32:12;;;;;;;12.98;11.88;;;;;;;;;;4987766;28;20556;-70
2022/06/20 01:34:37;;;;;;;11.40;10.35;;;;;;;;;;4987331;28;20025;-70
2022/06/20 01:37:25;;;;;;;12.25;11.15;;;;;;;;;;4994774;28;20030;-70
2022/06/20 01:39:51;;;;;;;12.18;11.18;;;;;;;;;;4987932;28;20041;-70
2022/06/20 01:42:20;;;;;;;11.85;10.85;;;;;;;;;;4993015;28;20046;-70
2022/06/20 01:45:57;;;;;;;14.38;11.98;;;;;;;;;;4995025;28;20489;-70
2022/06/20 01:47:51;;;;;;;11.80;10.80;;;;;;;;;;5000013;28;20030;-70
2022/06/20 01:50:17;;;;;;;12.90;11.85;;;;;;;;;;4989522;28;20464;-70
2022/06/20 01:52:43;;;;;;;12.48;11.38;;;;;;;;;;4988194;28;20022;-70
2022/06/20 01:55:12;;;;;;;12.55;11.50;;;;;;;;;;4993945;28;20026;-70
2022/06/20 01:57:39;;;;;;;12.88;11.77;;;;;;;;;;4991844;28;20077;-70
2022/06/20 02:00:05;;;;;;;12.80;11.75;;;;;;;;;;4993376;28;20789;-69
2022/06/20 02:02:33;;;;;;;16.33;12.68;;;;;;;;;;4990483;28;20113;-70
2022/06/20 02:04:58;;;;;;;12.75;11.75;;;;;;;;;;5000611;28;20411;-70
2022/06/20 02:07:23;;;;;;;12.77;11.63;;;;;;;;;;4999054;28;20057;-71
2022/06/20 02:09:50;;;;;;;15.35;11.77;;;;;;;;;;4989420;28;20027;-67
2022/06/20 02:12:16;;;;;;;12.02;10.82;;;;;;;;;;4989922;28;20073;-70
2022/06/20 02:14:50;;;;;;;13.05;11.70;;;;;;;;;;4993155;28;20077;-68
2022/06/20 02:17:30;;;;;;;13.43;12.30;;;;;;;;;;4991449;28;20120;-69
2022/06/20 02:19:56;;;;;;;12.32;11.07;;;;;;;;;;4984091;28;20041;-68
2022/06/20 02:22:22;;;;;;;12.73;11.57;;;;;;;;;;4995907;28;20030;-67
2022/06/20 02:24:51;;;;;;;12.60;11.55;;;;;;;;;;4998328;28;20080;-67
2022/06/20 02:27:19;;;;;;;12.52;11.52;;;;;;;;;;4990642;28;20131;-67
2022/06/20 02:29:44;;;;;;;13.40;12.30;;;;;;;;;;4995871;28;20392;-67
2022/06/20 02:32:17;;;;;;;13.75;12.38;;;;;;;;;;4992584;28;20022;-62
2022/06/20 02:34:43;;;;;;;13.88;12.57;;;;;;;;;;4992938;28;20473;-63
2022/06/20 02:37:10;;;;;;;13.43;12.13;;;;;;;;;;4985565;28;20393;-65
2022/06/20 02:39:38;;;;;;;15.05;12.07;;;;;;;;;;4988861;28;20096;-63
2022/06/20 02:42:04;;;;;;;11.57;10.52;;;;;;;;;;4995185;28;20057;-63
2022/06/20 02:44:30;;;;;;;11.98;10.95;;;;;;;;;;4970312;28;20042;-64
2022/06/20 02:46:56;;;;;;;12.98;11.63;;;;;;;;;;4975331;28;20034;-61
2022/06/20 02:49:23;;;;;;;12.35;11.25;;;;;;;;;;4972563;28;20073;-60
2022/06/20 02:51:52;;;;;;;12.32;11.13;;;;;;;;;;4971264;28;20023;-60
2022/06/20 02:54:20;;;;;;;12.75;11.45;;;;;;;;;;4972139;28;20499;-60
2022/06/20 02:56:51;;;;;;;13.35;10.80;;;;;;;;;;4974057;28;20027;-62
2022/06/20 02:59:36;;;;;;;10.85;9.98;;;;;;;;;;4973592;28;20027;-60
2022/06/20 03:02:06;;;;;;;12.07;11.07;;;;;;;;;;4973861;28;20412;-60
2022/06/20 03:04:33;;;;;;;12.25;11.13;;;;;;;;;;4974624;28;20041;-60
2022/06/20 03:07:18;;;;;;;12.90;11.75;;;;;;;;;;4967014;28;20027;-60
2022/06/20 03:09:43;;;;;;;;;;;;;;;;;;4979636;28;20038;-61
2022/06/20 03:12:09;;;;;;;13.05;11.73;;;;;;;;;;4972268;28;19906;-60
2022/06/20 03:14:37;;;;;;;23.15;12.15;;;;;;;;;;4965199;28;20854;-61
2022/06/20 03:17:04;;;;;;;13.80;12.43;;;;;;;;;;4966533;28;20031;-61
2022/06/20 03:19:32;;;;;;;12.80;11.70;;;;;;;;;;4974198;28;20089;-63
2022/06/20 03:21:58;;;;;;;12.13;10.93;;;;;;;;;;4973505;28;20076;-62
2022/06/20 03:24:28;;;;;;;13.70;12.40;;;;;;;;;;4964107;28;20034;-64
2022/06/20 03:26:53;;;;;;;12.30;10.95;;;;;;;;;;4978677;28;20371;-66
2022/06/20 03:29:19;;;;;;;12.60;11.43;;;;;;;;;;4967995;28;20031;-72
2022/06/20 03:31:45;;;;;;;13.32;11.88;;;;;;;;;;4966205;28;20102;-73
2022/06/20 03:34:10;;;;;;;13.57;10.90;;;;;;;;;;4963038;28;20031;-73
2022/06/20 03:36:36;;;;;;;11.57;10.40;;;;;;;;;;4965082;28;20031;-72
2022/06/20 03:39:03;;;;;;;12.60;11.30;;;;;;;;;;4984693;28;20029;-72
2022/06/20 03:41:28;;;;;;;10.90;9.82;;;;;;;;;;4967325;28;20633;-73
2022/06/20 03:44:14;;;;;;;12.73;11.48;;;;;;;;;;4978770;28;20053;-71
2022/06/20 03:46:46;;;;;;;10.73;9.68;;;;;;;;;;4991558;28;20025;-72
2022/06/20 03:49:14;;;;;;;10.38;9.27;;;;;;;;;;5003445;28;20026;-73
2022/06/20 03:51:54;;;;;;;11.25;10.23;;;;;;;;;;4986847;28;20030;-70
2022/06/20 03:54:24;;;;;;;10.63;9.70;;;;;;;;;;4988078;28;20030;-71
2022/06/20 03:57:00;;;;;;;10.85;9.95;;;;;;;;;;4991883;28;20045;-71
2022/06/20 03:59:30;;;;;;;9.60;8.77;;;;;;;;;;4988895;28;20149;-67
2022/06/20 04:01:58;;;;;;;9.10;8.40;;;;;;;;;;4984222;28;20034;-65
2022/06/20 04:04:27;;;;;;;9.68;8.93;;;;;;;;;;4986723;28;20128;-66
2022/06/20 04:06:55;;;;;;;9.38;8.57;;;;;;;;;;4993035;28;20045;-66
2022/06/20 04:12:21;;;;;;;8.75;7.95;;;;;;;;;;4986236;28;20461;-66
2022/06/20 04:14:50;;;;;;;8.60;7.90;;;;;;;;;;4992477;28;20254;-66
2022/06/20 04:20:30;;;;;;;8.93;8.10;;;;;;;;;;4987461;28;20072;-65
2022/06/20 04:22:57;;;;;;;8.75;7.95;;;;;;;;;;4987250;28;20101;-66
2022/06/20 04:25:26;;;;;;;7.82;7.22;;;;;;;;;;4990326;28;20018;-66
2022/06/20 04:27:58;;;;;;;9.25;8.05;;;;;;;;;;4991048;28;20725;-66
2022/06/20 04:30:45;;;;;;;10.18;9.15;;;;;;;;;;4997959;28;20022;-66
2022/06/20 04:33:23;;;;;;;9.15;8.35;;;;;;;;;;4991956;28;20031;-66
2022/06/20 04:35:57;;;;;;;8.68;7.93;;;;;;;;;;4991894;28;20034;-66
2022/06/20 04:38:24;;;;;;;11.23;8.30;;;;;;;;;;4982345;28;20026;-66
2022/06/20 04:40:58;;;;;;;8.90;8.25;;;;;;;;;;4987611;28;20125;-67
2022/06/20 04:43:33;;;;;;;8.57;7.78;;;;;;;;;;4991458;28;20473;-68
2022/06/20 04:46:02;;;;;;;8.80;8.02;;;;;;;;;;4992114;28;20038;-68
2022/06/20 04:48:28;;;;;;;11.77;8.48;;;;;;;;;;4985672;28;20511;-68
2022/06/20 04:50:56;;;;;;;7.22;6.72;;;;;;;;;;4986423;28;20316;-68
2022/06/20 04:53:23;;;;;;;8.02;7.35;;;;;;;;;;4992779;28;20030;-67
2022/06/20 04:55:49;;;;;;;7.68;7.07;;;;;;;;;;4990643;28;20037;-67
2022/06/20 04:58:17;;;;;;;8.20;7.32;;;;;;;;;;4972756;28;20093;-67
2022/06/20 05:00:43;;;;;;;7.43;6.82;;;;;;;;;;4990341;28;20018;-74
2022/06/20 05:03:11;;;;;;;7.85;6.88;;;;;;;;;;4992158;28;20125;-70
2022/06/20 05:05:39;;;;;;;9.13;7.03;;;;;;;;;;4990105;28;20108;-68
2022/06/20 05:08:06;;;;;;;7.72;6.93;;;;;;;;;;4968906;28;20048;-68
2022/06/20 05:10:49;;;;;;;9.00;8.30;;;;;;;;;;4988359;28;20030;-65
2022/06/20 05:13:20;;;;;;;9.15;8.27;;;;;;;;;;4991398;28;20038;-70
2022/06/20 05:15:48;;;;;;;9.50;8.65;;;;;;;;;;4989961;28;20173;-67
2022/06/20 05:18:16;;;;;;;9.80;8.88;;;;;;;;;;4984661;28;20139;-67
2022/06/20 05:20:42;;;;;;;10.57;9.25;;;;;;;;;;4990029;28;20065;-67
2022/06/20 05:23:20;;;;;;;10.00;9.20;;;;;;;;;;4992005;28;20124;-68
2022/06/20 05:25:45;;;;;;;8.98;8.27;;;;;;;;;;4991243;28;20045;-68
2022/06/20 05:28:12;;;;;;;8.73;7.93;;;;;;;;;;4990723;28;20042;-68
2022/06/20 05:30:39;;;;;;;8.45;7.60;;;;;;;;;;4998745;28;20031;-68
2022/06/20 05:33:08;;;;;;;8.65;7.95;;;;;;;;;;4997867;28;20033;-67
2022/06/20 05:35:39;;;;;;;9.40;8.55;;;;;;;;;;4986359;28;20028;-68
2022/06/20 05:38:10;;;;;;;9.48;8.50;;;;;;;;;;4984852;28;20443;-68
2022/06/20 05:40:55;;;;;;;8.25;7.60;;;;;;;;;;4991744;28;21107;-73
2022/06/20 05:43:22;;;;;;;8.32;7.60;;;;;;;;;;4988244;28;20050;-67
2022/06/20 05:45:49;;;;;;;9.43;8.55;;;;;;;;;;4992247;28;20041;-67
2022/06/20 05:48:14;;;;;;;8.95;8.23;;;;;;;;;;4991103;28;20371;-68
2022/06/20 05:50:43;;;;;;;7.88;7.18;;;;;;;;;;4982419;28;20046;-66
2022/06/20 05:53:12;;;;;;;9.65;8.63;;;;;;;;;;4986777;28;20034;-65
2022/06/20 05:55:41;;;;;;;11.27;7.55;;;;;;;;;;4984541;28;20029;-67
2022/06/20 05:58:07;;;;;;;8.30;7.70;;;;;;;;;;4987847;28;20476;-67
2022/06/20 06:00:33;;;;;;;8.30;7.60;;;;;;;;;;4991205;28;20121;-67
2022/06/20 06:03:18;;;;;;;9.25;8.48;;;;;;;;;;4985407;28;20162;-67
2022/06/20 06:05:49;;;;;;;12.50;7.68;;;;;;;;;;4984010;28;20423;-67
2022/06/20 06:08:46;;;;;;;11.00;9.90;;;;;;;;;;4998467;28;20053;-67
2022/06/20 06:11:15;;;;;;;10.80;9.32;;;;;;;;;;4934546;29;20472;-67
2022/06/20 06:13:46;;;;;;;17.83;13.13;;;;;;;;;;4922586;29;20040;-67
2022/06/20 06:19:25;;;;;;;11.32;10.10;;;;;;;;;;4929907;29;20026;-67
2022/06/20 06:21:53;;;;;;;8.10;7.40;;;;;;;;;;4850027;29;20652;-67
2022/06/20 06:24:23;;;;;;;8.40;7.80;;;;;;;;;;4858972;29;20551;-67
2022/06/20 06:26:49;;;;;;;8.45;7.68;;;;;;;;;;4859705;29;20189;-67
2022/06/20 06:29:20;;;;;;;8.93;8.13;;;;;;;;;;4853181;29;20045;-67
2022/06/20 06:31:47;;;;;;;7.70;6.72;;;;;;;;;;4847245;29;20451;-67
2022/06/20 06:34:18;;;;;;;7.70;6.85;;;;;;;;;;4849200;29;20045;-67
2022/06/20 06:36:49;;;;;;;7.15;6.60;;;;;;;;;;4855253;29;20117;-67
2022/06/20 06:39:21;;;;;;;6.40;5.93;;;;;;;;;;4853474;29;20045;-67
2022/06/20 06:41:48;;;;;;;7.88;7.18;;;;;;;;;;4848500;29;20040;-67
2022/06/20 06:44:16;;;;;;;6.63;6.05;;;;;;;;;;4854920;29;20054;-67
2022/06/20 06:46:45;;;;;;;7.15;6.55;;;;;;;;;;4876857;29;20599;-66
2022/06/20 06:49:29;;;;;;;13.52;7.57;;;;;;;;;;4887172;29;20032;-67
2022/06/20 06:52:09;;;;;;;8.95;6.57;;;;;;;;;;4887648;29;20491;-67
2022/06/20 06:54:41;;;;;;;7.25;6.65;;;;;;;;;;4900272;29;20100;-67
2022/06/20 06:57:25;;;;;;;8.20;7.47;;;;;;;;;;4891105;29;20040;-67
2022/06/20 06:59:56;;;;;;;9.95;8.25;;;;;;;;;;4981435;28;20037;-67
2022/06/20 07:02:23;;;;;;;7.55;6.85;;;;;;;;;;4983443;28;20058;-67
2022/06/20 07:04:53;;;;;;;8.13;7.22;;;;;;;;;;4988536;28;20030;-67
2022/06/20 07:07:25;;;;;;;12.23;8.80;;;;;;;;;;4989023;28;20030;-67
2022/06/20 07:09:51;;;;;;;9.18;7.50;;;;;;;;;;4982957;28;20030;-67
2022/06/20 07:12:19;;;;;;;14.38;8.07;;;;;;;;;;4987179;28;20507;-67
2022/06/20 07:14:49;;;;;;;8.20;7.40;;;;;;;;;;4996973;28;20389;-66
2022/06/20 07:17:24;;;;;;;8.45;7.72;;;;;;;;;;4989102;28;20469;-67
2022/06/20 07:19:50;;;;;;;8.80;7.75;;;;;;;;;;4983188;28;20030;-67
2022/06/20 07:22:18;;;;;;;10.65;7.75;;;;;;;;;;4985431;28;20053;-67
2022/06/20 07:24:44;;;;;;;10.48;7.63;;;;;;;;;;4989678;28;20468;-67
2022/06/20 07:27:19;;;;;;;8.55;7.70;;;;;;;;;;4985686;28;20026;-67
2022/06/20 07:29:47;;;;;;;7.95;7.20;;;;;;;;;;4983850;28;20096;-67
2022/06/20 07:32:16;;;;;;;7.97;7.25;;;;;;;;;;4986881;28;20027;-61
2022/06/20 07:34:48;;;;;;;8.98;7.20;;;;;;;;;;4989295;28;20032;-67
2022/06/20 07:37:15;;;;;;;10.50;7.10;;;;;;;;;;4983587;28;20130;-67
2022/06/20 07:39:43;;;;;;;7.38;6.90;;;;;;;;;;4982280;28;20023;-70
2022/06/20 07:42:18;;;;;;;7.50;6.95;;;;;;;;;;4992355;28;20037;-66
2022/06/20 07:44:53;;;;;;;7.88;7.35;;;;;;;;;;4991900;28;20058;-68
2022/06/20 07:47:21;;;;;;;8.00;7.40;;;;;;;;;;4984802;28;20034;-68
2022/06/20 07:49:49;;;;;;;8.75;6.65;;;;;;;;;;4984408;28;20552;-69
2022/06/20 07:52:20;;;;;;;7.05;6.57;;;;;;;;;;4993470;28;20297;-68
2022/06/20 07:54:48;;;;;;;7.68;6.95;;;;;;;;;;4998125;28;20030;-68
2022/06/20 07:57:16;;;;;;;7.95;7.25;;;;;;;;;;4983969;28;20034;-69
2022/06/20 07:59:51;;;;;;;7.90;7.30;;;;;;;;;;4988053;28;20022;-68
2022/06/20 08:02:25;;;;;;;7.80;6.90;;;;;;;;;;4991169;28;20033;-69
2022/06/20 08:04:55;;;;;;;8.82;7.63;;;;;;;;;;4985329;28;20025;-69
2022/06/20 08:07:26;;;;;;;8.52;7.82;;;;;;;;;;4981734;28;20431;-69
2022/06/20 08:09:51;;;;;;;7.95;6.97;;;;;;;;;;4987394;28;20034;-69
2022/06/20 08:12:22;;;;;;;9.32;8.57;;;;;;;;;;4992126;28;20041;-68
2022/06/20 08:14:50;;;;;;;8.20;7.60;;;;;;;;;;4992723;28;20030;-68
2022/06/20 08:17:16;;;;;;;7.03;6.43;;;;;;;;;;4984450;28;20478;-69
2022/06/20 08:19:42;;;;;;;9.55;7.70;;;;;;;;;;4989564;28;20026;-69
2022/06/20 08:22:26;;;;;;;7.45;6.95;;;;;;;;;;4989025;28;20041;-69
2022/06/20 08:24:53;;;;;;;8.13;7.35;;;;;;;;;;4981172;28;20023;-69
2022/06/20 08:27:28;;;;;;;8.20;7.60;;;;;;;;;;4984236;28;20491;-69
2022/06/20 08:29:57;;;;;;;7.78;7.13;;;;;;;;;;4990596;28;20029;-69
2022/06/20 08:32:35;;;;;;;7.90;7.38;;;;;;;;;;4985877;28;20502;-69
2022/06/20 08:35:00;;;;;;;7.47;6.88;;;;;;;;;;4983671;28;20355;-69
2022/06/20 08:37:29;;;;;;;8.48;7.80;;;;;;;;;;4989548;28;20038;-69
2022/06/20 08:40:00;;;;;;;8.73;7.57;;;;;;;;;;4992622;28;20480;-69
2022/06/20 08:42:25;;;;;;;7.95;7.20;;;;;;;;;;4990768;28;20418;-68
2022/06/20 08:45:02;;;;;;;9.25;8.00;;;;;;;;;;4989637;28;20050;-69
2022/06/20 08:47:37;;;;;;;8.38;7.78;;;;;;;;;;4993394;28;20038;-72
2022/06/20 08:50:27;;;;;;;8.50;7.85;;;;;;;;;;4997259;28;20121;-68
2022/06/20 08:53:02;;;;;;;8.65;7.75;;;;;;;;;;4984815;28;20030;-69
2022/06/20 08:55:45;;;;;;;8.25;7.75;;;;;;;;;;4987292;28;20035;-69
2022/06/20 08:58:17;;;;;;;9.40;8.13;;;;;;;;;;4994051;28;20042;-68
2022/06/20 09:00:55;;;;;;;8.95;8.13;;;;;;;;;;4994013;28;20101;-69
2022/06/20 09:03:31;;;;;;;8.27;7.63;;;;;;;;;;4974719;28;20037;-71
2022/06/20 09:05:59;;;;;;;9.40;8.60;;;;;;;;;;4995161;28;20029;-71
2022/06/20 09:08:31;;;;;;;9.85;8.90;;;;;;;;;;5000318;28;20038;-71
2022/06/20 09:11:00;;;;;;;9.43;8.77;;;;;;;;;;4977128;28;20026;-70
2022/06/20 09:13:25;;;;;;;8.57;7.97;;;;;;;;;;4992100;28;20018;-74
2022/06/20 09:16:10;;;;;;;12.43;8.32;;;;;;;;;;5000870;28;20033;-73
2022/06/20 09:18:43;;;;;;;7.82;7.22;;;;;;;;;;4992980;28;20031;-71
2022/06/20 09:21:23;;;;;;;8.93;8.23;;;;;;;;;;4985102;28;20387;-70
2022/06/20 09:23:58;;;;;;;8.88;8.18;;;;;;;;;;4988207;28;20026;-71
2022/06/20 09:26:23;;;;;;;9.20;8.50;;;;;;;;;;4992878;28;20030;-70
2022/06/20 09:28:48;;;;;;;12.45;8.20;;;;;;;;;;4990753;28;20381;-71
2022/06/20 09:31:13;;;;;;;9.18;8.27;;;;;;;;;;4983360;28;20351;-71
2022/06/20 09:33:51;;;;;;;9.73;8.73;;;;;;;;;;4987920;28;20465;-71
2022/06/20 09:36:22;;;;;;;8.20;7.70;;;;;;;;;;4991177;28;20034;-72
2022/06/20 09:38:56;;;;;;;8.70;8.13;;;;;;;;;;4988703;28;20434;-73
2022/06/20 09:41:40;;;;;;;8.05;7.32;;;;;;;;;;4987300;28;20045;-69
2022/06/20 09:44:14;;;;;;;8.82;8.07;;;;;;;;;;4984784;28;20046;-71
2022/06/20 09:46:40;;;;;;;9.05;8.35;;;;;;;;;;4983013;28;20072;-71
2022/06/20 09:49:24;;;;;;;9.38;8.63;;;;;;;;;;4993122;28;20477;-68
2022/06/20 09:51:55;;;;;;;8.93;8.23;;;;;;;;;;4992402;28;20049;-68
2022/06/20 09:54:52;;;;;;;9.35;8.40;;;;;;;;;;4985842;28;20448;-68
2022/06/20 09:57:32;;;;;;;8.93;8.07;;;;;;;;;;4961529;28;20482;-67
2022/06/20 10:00:04;;;;;;;8.77;7.97;;;;;;;;;;4989831;28;20044;-68
2022/06/20 10:02:32;;;;;;;11.07;9.15;;;;;;;;;;4986173;28;20138;-69
2022/06/20 10:05:06;;;;;;;8.68;8.15;;;;;;;;;;4982180;28;20030;-68
2022/06/20 10:07:37;;;;;;;9.15;8.40;;;;;;;;;;4988713;28;20149;-65
2022/06/20 10:10:12;;;;;;;10.02;9.13;;;;;;;;;;4992872;28;20126;-69
2022/06/20 10:12:54;;;;;;;8.95;8.15;;;;;;;;;;4992533;28;20133;-68
2022/06/20 10:15:31;;;;;;;9.73;8.85;;;;;;;;;;4987753;28;20038;-70
2022/06/20 10:17:59;;;;;;;9.63;8.82;;;;;;;;;;4995012;28;20476;-63
2022/06/20 10:20:24;;;;;;;10.32;9.30;;;;;;;;;;4988963;28;20089;-65
2022/06/20 10:23:08;;;;;;;9.00;8.30;;;;;;;;;;4983465;28;20516;-65
2022/06/20 10:25:52;;;;;;;9.57;8.67;;;;;;;;;;4985797;28;20054;-66
2022/06/20 10:28:23;;;;;;;13.07;10.93;;;;;;;;;;4990937;28;20095;-64
2022/06/20 10:31:08;;;;;;;19.58;12.75;;;;;;;;;;4988653;28;20018;-64
2022/06/20 10:33:48;;;;;;;17.73;13.93;;;;;;;;;;4981529;28;20092;-65
2022/06/20 10:36:14;;;;;;;23.60;14.00;;;;;;;;;;4989151;28;20427;-65
2022/06/20 10:38:41;;;;;;;18.60;12.00;;;;;;;;;;4989249;28;20026;-64
2022/06/20 10:41:08;;;;;;;20.30;13.73;;;;;;;;;;4982078;28;20030;-64
2022/06/20 10:43:51;;;;;;;20.23;13.07;;;;;;;;;;4987280;28;20054;-64
2022/06/20 10:46:16;;;;;;;21.20;13.35;;;;;;;;;;4993487;28;20023;-65
2022/06/20 10:49:00;;;;;;;18.15;14.50;;;;;;;;;;4988274;28;20041;-65
2022/06/20 10:51:30;;;;;;;17.73;13.65;;;;;;;;;;4988742;28;20404;-65
2022/06/20 10:54:21;;;;;;;22.13;12.93;;;;;;;;;;4989273;28;20022;-64
2022/06/20 10:57:06;;;;;;;25.48;13.35;;;;;;;;;;4988695;28;20026;-64
2022/06/20 10:59:50;;;;;;;16.00;12.00;;;;;;;;;;4986674;28;20065;-64
2022/06/20 11:02:27;;;;;;;20.70;13.30;;;;;;;;;;4986785;28;20027;-63
2022/06/20 11:04:57;;;;;;;18.42;12.40;;;;;;;;;;4990236;28;20030;-65
2022/06/20 11:07:26;;;;;;;17.65;13.23;;;;;;;;;;4986961;28;20122;-64
2022/06/20 11:09:51;;;;;;;16.05;12.35;;;;;;;;;;4982495;28;20019;-64
2022/06/20 11:12:22;;;;;;;24.05;13.65;;;;;;;;;;4984945;28;20080;-63
2022/06/20 11:15:11;;;;;;;17.17;12.73;;;;;;;;;;4996463;28;20030;-65
2022/06/20 11:17:46;;;;;;;16.20;12.63;;;;;;;;;;4988613;28;20037;-66
2022/06/20 11:20:12;;;;;;;20.92;10.75;;;;;;;;;;4981437;28;20034;-65
2022/06/20 11:22:43;;;;;;;23.83;12.00;;;;;;;;;;4987107;28;20036;-61
2022/06/20 11:25:17;;;;;;;15.75;10.60;;;;;;;;;;4987532;28;20081;-64
2022/06/20 11:27:42;;;;;;;14.90;10.30;;;;;;;;;;4982951;28;20121;-64
2022/06/20 11:30:27;;;;;;;15.10;11.23;;;;;;;;;;4986274;28;20233;-65
2022/06/20 11:33:18;;;;;;;13.52;8.55;;;;;;;;;;4990286;28;20022;-66
2022/06/20 11:36:05;;;;;;;12.20;9.27;;;;;;;;;;4983725;28;20120;-65
2022/06/20 11:39:02;;;;;;;12.40;8.52;;;;;;;;;;4981939;28;20023;-65
2022/06/20 11:41:30;;;;;;;12.73;7.70;;;;;;;;;;4953296;28;20031;-65
2022/06/20 11:44:14;;;;;;;13.23;7.68;;;;;;;;;;4971940;28;20054;-65
2022/06/20 11:46:42;;;;;;;12.23;7.87;;;;;;;;;;4966070;28;20109;-65
2022/06/20 11:49:26;;;;;;;10.27;7.70;;;;;;;;;;4963146;28;20360;-64
2022/06/20 11:52:06;;;;;;;13.55;8.77;;;;;;;;;;4983280;28;20027;-66
2022/06/20 11:54:44;;;;;;;13.48;8.77;;;;;;;;;;4967447;28;20030;-66
2022/06/20 11:57:29;;;;;;;9.18;8.25;;;;;;;;;;4962736;28;20035;-65
2022/06/20 12:00:06;;;;;;;13.75;8.07;;;;;;;;;;4962280;28;20047;-64
2022/06/20 12:02:34;;;;;;;12.43;7.88;;;;;;;;;;4969510;28;20030;-67
2022/06/20 12:05:18;;;;;;;11.93;7.88;;;;;;;;;;4963695;28;20026;-67
2022/06/20 12:07:47;;;;;;;12.73;7.72;;;;;;;;;;4963559;28;20125;-66
2022/06/20 12:10:18;;;;;;;10.30;7.03;;;;;;;;;;4971204;28;20105;-65
2022/06/20 12:12:53;;;;;;;11.50;8.77;;;;;;;;;;4973498;28;20027;-67
2022/06/20 12:15:36;;;;;;;15.45;7.60;;;;;;;;;;4970965;28;20049;-66
2022/06/20 12:18:17;;;;;;;10.27;7.45;;;;;;;;;;4969485;28;20513;-66
2022/06/20 12:23:30;;;;;;;9.85;7.65;;;;;;;;;;4974076;28;20033;-66
2022/06/20 12:25:57;;;;;;;11.30;8.48;;;;;;;;;;4965821;28;20039;-65
2022/06/20 12:28:23;;;;;;;10.40;8.25;;;;;;;;;;4971060;28;20081;-65
2022/06/20 12:30:54;;;;;;;13.75;8.38;;;;;;;;;;4969700;28;20453;-65
2022/06/20 12:33:19;;;;;;;13.25;9.10;;;;;;;;;;4964825;28;20023;-65
2022/06/20 12:35:48;;;;;;;12.63;9.02;;;;;;;;;;4964088;28;20042;-66
2022/06/20 12:38:13;;;;;;;10.70;9.32;;;;;;;;;;4969288;28;20035;-67
2022/06/20 12:40:42;;;;;;;12.65;9.35;;;;;;;;;;4969242;28;20493;-66
2022/06/20 12:43:10;;;;;;;12.30;8.07;;;;;;;;;;4968002;28;20054;-67
2022/06/20 12:45:39;;;;;;;8.35;7.25;;;;;;;;;;4985477;28;20022;-64
2022/06/20 12:48:07;;;;;;;9.10;8.18;;;;;;;;;;4990165;28;20041;-66
2022/06/20 12:50:39;;;;;;;9.20;7.72;;;;;;;;;;4987179;28;20173;-65
2022/06/20 12:53:19;;;;;;;7.57;6.88;;;;;;;;;;4982054;28;20434;-63
2022/06/20 12:56:00;;;;;;;10.75;7.97;;;;;;;;;;4986013;28;20034;-65
2022/06/20 12:58:25;;;;;;;8.65;6.63;;;;;;;;;;4995845;28;20069;-64
2022/06/20 13:00:51;;;;;;;7.78;6.65;;;;;;;;;;4995327;28;20063;-64
2022/06/20 13:03:36;;;;;;;11.55;7.38;;;;;;;;;;4984184;28;20419;-64
2022/06/20 13:06:36;;;;;;;7.97;7.18;;;;;;;;;;4989125;28;20022;-64
2022/06/20 13:09:11;;;;;;;10.25;7.63;;;;;;;;;;4889582;29;20047;-64
2022/06/20 13:11:36;;;;;;;10.98;7.75;;;;;;;;;;4883251;29;20048;-63
2022/06/20 13:14:17;;;;;;;8.77;7.60;;;;;;;;;;4895855;29;20039;-63
2022/06/20 13:16:55;;;;;;;12.30;8.50;;;;;;;;;;4897562;29;20047;-64
2022/06/20 13:19:23;;;;;;;14.23;9.75;;;;;;;;;;4887600;29;20341;-66
2022/06/20 13:21:51;;;;;;;9.25;8.10;;;;;;;;;;4882691;29;20459;-68
2022/06/20 13:24:17;;;;;;;10.52;7.28;;;;;;;;;;4885410;29;20037;-66
2022/06/20 13:26:52;;;;;;;7.88;7.15;;;;;;;;;;4889677;29;20645;-70
2022/06/20 13:29:36;;;;;;;10.43;7.32;;;;;;;;;;4886196;29;20048;-71
2022/06/20 13:32:04;;;;;;;6.57;5.97;;;;;;;;;;4890556;29;20314;-68
2022/06/20 13:34:35;;;;;;;8.88;6.82;;;;;;;;;;4891727;29;20175;-71
2022/06/20 13:37:01;;;;;;;7.97;6.78;;;;;;;;;;4888584;29;20055;-72
2022/06/20 13:39:26;;;;;;;8.25;6.55;;;;;;;;;;4890190;29;20032;-70
2022/06/20 13:42:11;;;;;;;10.53;6.60;;;;;;;;;;4893965;28;20909;-71
2022/06/20 13:45:00;;;;;;;7.70;6.05;;;;;;;;;;4992366;28;20573;-70
2022/06/20 13:47:25;;;;;;;7.25;5.68;;;;;;;;;;4953318;28;20053;-70
2022/06/20 13:50:02;;;;;;;8.73;6.32;;;;;;;;;;4984032;28;20022;-68
2022/06/20 13:52:38;;;;;;;7.50;6.25;;;;;;;;;;4988307;28;20585;-70
2022/06/20 13:55:13;;;;;;;6.65;6.05;;;;;;;;;;4988872;28;20108;-70
2022/06/20 13:57:42;;;;;;;8.50;5.78;;;;;;;;;;4986831;28;20347;-73
2022/06/20 14:00:16;;;;;;;5.95;5.40;;;;;;;;;;4989545;28;20050;-72
2022/06/20 14:02:41;;;;;;;;;;;;;;;;;;4985889;28;20032;-73
2022/06/20 14:05:17;;;;;;;8.82;7.25;;;;;;;;;;4990738;28;19909;-72
2022/06/20 14:07:44;;;;;;;7.63;6.82;;;;;;;;;;4983985;28;20144;-70
2022/06/20 14:10:29;;;;;;;6.93;5.88;;;;;;;;;;4983929;28;20022;-69
2022/06/20 14:12:58;;;;;;;7.90;6.25;;;;;;;;;;4986799;28;20038;-72
2022/06/20 14:15:26;;;;;;;10.50;6.15;;;;;;;;;;4991077;28;20041;-66
2022/06/20 14:17:58;;;;;;;8.02;5.93;;;;;;;;;;4980670;28;20044;-72
2022/06/20 14:20:32;;;;;;;9.77;7.25;;;;;;;;;;4983133;28;20033;-71
2022/06/20 14:22:59;;;;;;;9.05;5.85;;;;;;;;;;4983422;28;20034;-71
2022/06/20 14:25:39;;;;;;;8.25;6.13;;;;;;;;;;4983982;28;20072;-69
2022/06/20 14:28:23;;;;;;;7.55;6.18;;;;;;;;;;4984405;28;20153;-71
2022/06/20 14:30:52;;;;;;;9.38;7.00;;;;;;;;;;4983885;28;20029;-72
2022/06/20 14:33:25;;;;;;;9.77;6.40;;;;;;;;;;4983157;28;20626;-72
2022/06/20 14:36:09;;;;;;;9.40;6.13;;;;;;;;;;4983498;28;20451;-73
2022/06/20 14:38:41;;;;;;;7.85;6.88;;;;;;;;;;4985085;28;20380;-71
2022/06/20 14:41:39;;;;;;;10.15;7.20;;;;;;;;;;4983662;28;20022;-70
2022/06/20 14:44:00;;;;;;;7.78;6.50;;;;;;;;;;4981458;28;20532;-70
2022/06/20 14:46:29;;;;;;;7.55;6.78;;;;;;;;;;4965683;28;20125;-72
2022/06/20 14:49:02;;;;;;;9.48;7.40;;;;;;;;;;4985248;28;21396;-69
2022/06/20 14:51:27;;;;;;;9.65;6.60;;;;;;;;;;4986056;28;20034;-67
2022/06/20 14:54:01;;;;;;;9.13;7.20;;;;;;;;;;4982085;28;20457;-73
2022/06/20 14:56:26;;;;;;;;;;;;;;;;;;4981278;28;20430;-70
2022/06/20 14:59:01;;;;;;;7.00;6.30;;;;;;;;;;4985728;28;19920;-70
2022/06/20 15:01:27;;;;;;;8.93;6.20;;;;;;;;;;4983154;28;20060;-68
2022/06/20 15:03:55;;;;;;;12.13;6.50;;;;;;;;;;4980840;28;20424;-68
2022/06/20 15:06:24;;;;;;;9.20;6.60;;;;;;;;;;4984649;28;20465;-72
2022/06/20 15:08:57;;;;;;;7.18;6.35;;;;;;;;;;4987211;28;20132;-71
2022/06/20 15:11:44;;;;;;;9.75;6.97;;;;;;;;;;4987342;28;20077;-71